Pagrindinis puslapis
METAR-TAF:

METAR-TAF

Oro uostai :

Stokholmas-Arlanda, Švedija

platuma: 59-39N, ilguma: 017-57E, Aukštis: 38 m

Dabartinis oras

Ataskaita buvo paskelbta 35 minutes, ne 13:20 UTC
Vėjas 9 kt iš Vakarų/Pietvakarių
Temperatūra 6°C
Drėgmė 65%
Slėgis 999 hPa
Matomumas 10 km arba daugiau
Išsisklaidę debesys ne aukštis 3000 ft

METAR: ESSA 191320Z 25009KT 9999 SCT030 06/M00 Q0999 R01L/09//95 R08/09//95 R01R/09//95 NOSIG

Laikas: 14:55 (13:55 UTC)

Prognozė

Ataskaita buvo paskelbta 2 valandos ir 25 minutes, ne 11:30 UTC
Prognozė galioja nuo 19 metu 12 UTC su 20 metu 12 UTC
Vėjas 10 kt iš Vakarų/Pietvakarių
Matomumas 10 km arba daugiau
nėra debesų žemiau 1500 m ir nėra kamuolinių lietaus debesų
Tikimybė 40%
nuo 20 metu 08 UTC su 20 metu 12 UTC
Su prošvaistėmis ne aukštis 1400 ft

TAF: ESSA 191130Z 1912/2012 24010KT CAVOK PROB40 2008/2012 BKN014

Orai ataskaitas ir orų prognozės (METAR, TAF).

turimą stotys yra geltonos ir raudonos taškus žemėlapyje.

Perkelti pele per norėdami pamatyti stoties vardą.

Tada spustelėkite, norėdami matyti oro stebėjimo ir prognozės.

Norėdami pakeisti žemėlapį: spustelėkite ant žalios mygtukų su juodo kryžiaus žemyn,; žalią mygtuką su brūkšneliu, jei norite nutolinti; arba žalių rodyklių gretimoms žemėlapius.


METAR-TAF: